createdAt,value
2023-01-19T00:00:25.677Z,96256.41
2023-01-19T00:04:27.031Z,96247.69
2023-01-19T00:08:28.363Z,96263.72
2023-01-19T00:12:31.095Z,96265.94
2023-01-19T00:16:32.458Z,96273.81
2023-01-19T00:20:33.840Z,96278.69
2023-01-19T00:24:35.259Z,96287.09
2023-01-19T00:28:37.981Z,96297.16
2023-01-19T00:32:39.317Z,96294.41
2023-01-19T00:36:40.912Z,96295.22
2023-01-19T00:40:42.276Z,96302.59
2023-01-19T00:44:44.983Z,96295.81
2023-01-19T00:48:46.322Z,96303.91
2023-01-19T00:52:47.677Z,96312.34
2023-01-19T00:56:49.015Z,96311.34
2023-01-19T01:00:53.133Z,96315.44
2023-01-19T01:04:54.591Z,96316.78
2023-01-19T01:08:55.939Z,96327.63
2023-01-19T01:12:58.027Z,96335.00
2023-01-19T01:17:19.990Z,96345.81
2023-01-19T01:21:21.325Z,96348.53
2023-01-19T01:25:23.235Z,96358.06
2023-01-19T01:29:24.613Z,96359.50
2023-01-19T01:33:39.924Z,96358.72
2023-01-19T01:37:42.965Z,96369.56
2023-01-19T01:41:44.314Z,96371.72
2023-01-19T01:45:46.427Z,96379.34
2023-01-19T01:49:51.407Z,96386.69
2023-01-19T01:53:57.367Z,96393.75
2023-01-19T01:58:00.536Z,96395.13
2023-01-19T02:02:04.609Z,96392.94
2023-01-19T02:06:08.193Z,96398.09
2023-01-19T02:10:10.008Z,96401.88
2023-01-19T02:14:11.367Z,96407.91
2023-01-19T02:18:12.903Z,96413.31
2023-01-19T02:22:18.373Z,96410.31
2023-01-19T02:26:22.246Z,96417.72
2023-01-19T02:30:23.693Z,96416.88
2023-01-19T02:34:25.175Z,96411.69
2023-01-19T02:38:27.705Z,96411.97
2023-01-19T02:42:32.119Z,96409.53
2023-01-19T02:46:33.599Z,96421.75
2023-01-19T02:50:39.787Z,96424.75
2023-01-19T02:54:46.314Z,96431.81
2023-01-19T02:58:53.339Z,96431.25
2023-01-19T03:03:01.951Z,96423.94
2023-01-19T03:07:08.464Z,96421.16
2023-01-19T03:11:11.381Z,96424.75
2023-01-19T03:15:18.271Z,96418.16
2023-01-19T03:19:21.697Z,96421.97
2023-01-19T03:23:25.959Z,96420.94
2023-01-19T03:27:29.496Z,96431.81
2023-01-19T03:31:33.066Z,96423.09
2023-01-19T03:35:35.720Z,96416.06
2023-01-19T03:39:37.457Z,96430.19
2023-01-19T03:43:39.857Z,96419.84
2023-01-19T03:47:42.630Z,96429.34
2023-01-19T03:51:44.037Z,96432.09
2023-01-19T03:55:46.507Z,96429.94
2023-01-19T03:59:47.840Z,96423.09
2023-01-19T04:03:50.593Z,96418.47
2023-01-19T04:07:52.247Z,96430.69
2023-01-19T04:11:53.644Z,96424.91
2023-01-19T04:15:55.020Z,96423.50
2023-01-19T04:19:57.769Z,96435.66
2023-01-19T04:23:59.147Z,96430.19
2023-01-19T04:28:00.569Z,96442.63
2023-01-19T04:32:01.917Z,96444.72
2023-01-19T04:36:05.112Z,96439.16
2023-01-19T04:40:07.305Z,96441.97
2023-01-19T04:44:08.726Z,96436.63
2023-01-19T04:48:10.278Z,96424.84
2023-01-19T04:52:12.990Z,96429.47
2023-01-19T04:56:14.351Z,96423.19
2023-01-19T05:00:16.449Z,96421.59
2023-01-19T05:04:17.803Z,96427.22
2023-01-19T05:08:20.848Z,96424.56
2023-01-19T05:12:22.243Z,96433.34
2023-01-19T05:16:23.616Z,96432.09
2023-01-19T05:20:25.370Z,96440.94
2023-01-19T05:24:28.102Z,96441.25
2023-01-19T05:28:29.761Z,96445.47
2023-01-19T05:32:31.116Z,96456.69
2023-01-19T05:36:32.693Z,96449.56
2023-01-19T05:40:35.427Z,96453.22
2023-01-19T05:44:36.799Z,96449.81
2023-01-19T05:48:38.178Z,96450.06
2023-01-19T05:52:39.535Z,96465.44
2023-01-19T05:56:42.582Z,96468.25
2023-01-19T06:00:43.924Z,96469.72
2023-01-19T06:04:45.270Z,96469.66
2023-01-19T06:08:46.622Z,96479.25
2023-01-19T06:12:49.768Z,96488.13
2023-01-19T06:16:51.375Z,96499.44
2023-01-19T06:20:53.095Z,96493.13
2023-01-19T06:24:54.438Z,96499.44
2023-01-19T06:28:57.264Z,96501.88
2023-01-19T06:32:58.842Z,96511.47
2023-01-19T06:37:00.346Z,96520.91
2023-01-19T06:41:01.699Z,96524.00
2023-01-19T06:45:04.721Z,96538.25
2023-01-19T06:49:06.319Z,96534.16
2023-01-19T06:53:07.698Z,96550.06
2023-01-19T06:57:09.285Z,96558.22
2023-01-19T07:01:12.109Z,96553.97
2023-01-19T07:05:13.492Z,96554.16
2023-01-19T07:09:16.838Z,96569.53
2023-01-19T07:13:18.330Z,96578.22
2023-01-19T07:17:21.048Z,96590.72
2023-01-19T07:21:24.403Z,96591.53
2023-01-19T07:25:26.084Z,96598.34
2023-01-19T07:29:27.712Z,96601.47
2023-01-19T07:33:30.571Z,96601.44
2023-01-19T07:37:31.921Z,96599.81
2023-01-19T07:41:33.291Z,96610.47
2023-01-19T07:45:35.336Z,96616.16
2023-01-19T07:49:38.165Z,96621.69
2023-01-19T07:53:39.824Z,96619.38
2023-01-19T07:57:41.152Z,96632.19
2023-01-19T08:01:42.608Z,96633.19
2023-01-19T08:05:45.377Z,96628.50
2023-01-19T08:09:46.809Z,96638.66
2023-01-19T08:13:48.169Z,96635.69
2023-01-19T08:17:54.394Z,96629.13
2023-01-19T08:21:57.359Z,96639.91
2023-01-19T08:25:58.766Z,96644.00
2023-01-19T08:30:00.148Z,96637.00
2023-01-19T08:34:01.667Z,96644.22
2023-01-19T08:38:04.818Z,96634.53
2023-01-19T08:42:06.192Z,96643.03
2023-01-19T08:46:07.659Z,96642.38
2023-01-19T08:50:09.884Z,96644.81
2023-01-19T08:54:12.611Z,96645.06
2023-01-19T08:58:13.952Z,96648.63
2023-01-19T09:02:15.332Z,96656.03
2023-01-19T09:06:17.036Z,96644.53
2023-01-19T09:10:19.934Z,96657.41
2023-01-19T09:14:21.287Z,96659.75
2023-01-19T09:18:22.874Z,96653.84
2023-01-19T09:22:24.312Z,96655.97
2023-01-19T09:26:27.053Z,96655.44
2023-01-19T09:30:28.480Z,96653.34
2023-01-19T09:34:29.822Z,96662.41
2023-01-19T09:38:31.195Z,96671.84
2023-01-19T09:42:41.582Z,96665.81
2023-01-19T09:46:43.044Z,96663.03
2023-01-19T09:50:44.561Z,96670.31
2023-01-19T09:54:48.839Z,96667.63
2023-01-19T09:58:51.947Z,96667.00
2023-01-19T10:02:56.567Z,96662.38
2023-01-19T10:07:08.689Z,96664.41
2023-01-19T10:11:17.492Z,96655.41
2023-01-19T10:15:26.234Z,96658.13
2023-01-19T10:19:29.943Z,96654.09
2023-01-19T10:23:40.661Z,96651.09
2023-01-19T10:27:42.022Z,96651.59
2023-01-19T10:31:45.954Z,96656.75
2023-01-19T10:35:47.366Z,96655.63
2023-01-19T10:39:52.629Z,96653.53
2023-01-19T10:43:59.449Z,96648.13
2023-01-19T10:48:06.184Z,96652.19
2023-01-19T10:52:08.799Z,96643.78
2023-01-19T10:56:12.310Z,96644.13
2023-01-19T11:00:29.293Z,96647.16
2023-01-19T11:04:32.130Z,96643.88
2023-01-19T11:08:33.521Z,96640.91
2023-01-19T11:12:39.400Z,96631.06
2023-01-19T11:16:41.299Z,96636.81
2023-01-19T11:20:49.413Z,96637.03
2023-01-19T11:24:50.758Z,96631.31
2023-01-19T11:28:53.171Z,96633.22
2023-01-19T11:32:54.570Z,96628.03
2023-01-19T11:36:58.154Z,96625.28
2023-01-19T11:40:59.715Z,96618.72
2023-01-19T11:45:03.190Z,96614.31
2023-01-19T11:49:05.724Z,96614.88
2023-01-19T11:53:14.870Z,96615.19
2023-01-19T11:57:16.939Z,96609.78
2023-01-19T12:01:21.505Z,96602.19
2023-01-19T12:05:25.989Z,96597.53
2023-01-19T12:09:31.836Z,96594.81
2023-01-19T12:13:33.882Z,96605.47
2023-01-19T12:17:37.630Z,96607.63
2023-01-19T12:21:38.954Z,96600.25
2023-01-19T12:25:52.715Z,96592.63
2023-01-19T12:29:55.441Z,96583.91
2023-01-19T12:34:19.981Z,96587.41
2023-01-19T12:38:33.319Z,96583.88
2023-01-19T12:42:36.102Z,96583.63
2023-01-19T12:46:37.920Z,96585.47
2023-01-19T12:50:39.341Z,96584.06
2023-01-19T12:54:43.438Z,96577.78
2023-01-19T12:58:49.117Z,96570.88
2023-01-19T13:02:51.690Z,96568.41
2023-01-19T13:07:06.094Z,96575.28
2023-01-19T13:11:20.601Z,96575.50
2023-01-19T13:15:33.755Z,96575.56
2023-01-19T13:19:41.750Z,96571.22
2023-01-19T13:23:52.136Z,96569.84
2023-01-19T13:27:54.024Z,96569.06
2023-01-19T13:31:57.452Z,96576.19
2023-01-19T13:35:58.969Z,96578.91
2023-01-19T13:40:00.984Z,96579.16
2023-01-19T13:44:07.060Z,96586.00
2023-01-19T13:48:15.641Z,96581.66
2023-01-19T13:52:20.726Z,96584.69
2023-01-19T13:56:22.765Z,96589.03
2023-01-19T14:00:25.206Z,96599.44
2023-01-19T14:04:29.027Z,96599.13
2023-01-19T14:08:30.382Z,96597.25
2023-01-19T14:12:32.047Z,96593.72
2023-01-19T14:16:33.474Z,96599.97
2023-01-19T14:20:36.252Z,96601.34
2023-01-19T14:24:37.594Z,96604.66
2023-01-19T14:28:43.471Z,96602.72
2023-01-19T14:32:45.353Z,96612.28
2023-01-19T14:36:50.595Z,96606.81
2023-01-19T14:40:51.967Z,96603.00
2023-01-19T14:44:54.428Z,96603.00
2023-01-19T14:49:00.858Z,96608.47
2023-01-19T14:53:04.478Z,96603.00
2023-01-19T14:57:10.766Z,96607.66
2023-01-19T15:01:12.196Z,96610.38
2023-01-19T15:05:14.199Z,96608.44
2023-01-19T15:09:16.946Z,96609.00
2023-01-19T15:13:20.381Z,96611.72
2023-01-19T15:17:21.920Z,96616.06
2023-01-19T15:21:23.318Z,96615.00
2023-01-19T15:25:26.084Z,96619.38
2023-01-19T15:29:27.465Z,96621.78
2023-01-19T15:33:29.442Z,96616.34
2023-01-19T15:37:30.801Z,96613.31
2023-01-19T15:41:33.600Z,96618.22
2023-01-19T15:45:35.893Z,96617.97
2023-01-19T15:49:37.245Z,96626.94
2023-01-19T15:53:39.821Z,96627.75
2023-01-19T15:57:42.559Z,96629.09
2023-01-19T16:01:44.023Z,96629.59
2023-01-19T16:05:45.446Z,96629.84
2023-01-19T16:09:46.793Z,96626.84
2023-01-19T16:13:49.530Z,96639.34
2023-01-19T16:17:50.930Z,96639.84
2023-01-19T16:21:52.298Z,96642.25
2023-01-19T16:25:58.401Z,96649.59
2023-01-19T16:30:01.275Z,96650.47
2023-01-19T16:34:02.768Z,96655.63
2023-01-19T16:38:04.135Z,96654.31
2023-01-19T16:42:05.673Z,96654.25
2023-01-19T16:46:16.741Z,96656.09
2023-01-19T16:50:18.240Z,96654.47
2023-01-19T16:54:20.871Z,96656.38
2023-01-19T16:58:22.358Z,96654.72
2023-01-19T17:02:25.150Z,96653.06
2023-01-19T17:06:26.755Z,96658.47
2023-01-19T17:10:28.120Z,96664.72
2023-01-19T17:14:29.491Z,96660.34
2023-01-19T17:18:33.768Z,96671.75
2023-01-19T17:22:35.118Z,96667.97
2023-01-19T17:26:36.480Z,96668.59
2023-01-19T17:30:37.880Z,96677.25
2023-01-19T17:34:40.693Z,96666.66
2023-01-19T17:38:42.355Z,96680.38
2023-01-19T17:42:43.737Z,96679.09
2023-01-19T17:46:45.067Z,96679.56
2023-01-19T17:50:47.762Z,96683.09
2023-01-19T17:54:49.107Z,96688.78
2023-01-19T17:58:50.595Z,96678.97
2023-01-19T18:02:52.080Z,96679.34
2023-01-19T18:06:54.847Z,96686.34
2023-01-19T18:10:56.659Z,96691.00
2023-01-19T18:14:58.018Z,96689.41
2023-01-19T18:18:59.466Z,96689.44
2023-01-19T18:23:02.167Z,96687.31
2023-01-19T18:27:03.602Z,96690.03
2023-01-19T18:31:06.478Z,96689.44
2023-01-19T18:35:08.358Z,96687.00
2023-01-19T18:39:11.082Z,96692.13
2023-01-19T18:43:12.557Z,96689.94
2023-01-19T18:47:13.876Z,96696.22
2023-01-19T18:51:16.038Z,96694.53
2023-01-19T18:55:18.787Z,96696.72
2023-01-19T18:59:20.145Z,96696.94
2023-01-19T19:03:21.716Z,96692.06
2023-01-19T19:07:23.281Z,96688.03
2023-01-19T19:11:26.723Z,96690.22
2023-01-19T19:15:28.127Z,96691.03
2023-01-19T19:19:29.484Z,96689.59
2023-01-19T19:23:30.892Z,96693.09
2023-01-19T19:27:33.595Z,96694.94
2023-01-19T19:31:34.983Z,96695.06
2023-01-19T19:35:36.412Z,96702.28
2023-01-19T19:39:37.776Z,96703.34
2023-01-19T19:43:40.604Z,96703.00
2023-01-19T19:47:41.947Z,96705.88
2023-01-19T19:51:43.309Z,96704.75
2023-01-19T19:55:44.733Z,96707.22
2023-01-19T19:59:47.433Z,96717.56
2023-01-19T20:03:49.335Z,96718.75
2023-01-19T20:07:50.674Z,96718.44
2023-01-19T20:11:52.045Z,96717.47
2023-01-19T20:15:54.839Z,96722.28
2023-01-19T20:19:56.214Z,96720.81
2023-01-19T20:23:59.569Z,96722.03
2023-01-19T20:28:00.911Z,96728.13
2023-01-19T20:32:03.654Z,96735.38
2023-01-19T20:36:05.159Z,96734.00
2023-01-19T20:40:06.615Z,96745.94
2023-01-19T20:44:08.013Z,96739.16
2023-01-19T20:48:10.748Z,96737.25
2023-01-19T20:52:12.112Z,96732.91
2023-01-19T20:56:14.696Z,96737.75
2023-01-19T21:00:16.219Z,96739.59
2023-01-19T21:04:19.002Z,96741.00
2023-01-19T21:08:20.322Z,96745.31
2023-01-19T21:12:21.683Z,96743.31
2023-01-19T21:16:23.563Z,96747.84
2023-01-19T21:20:26.416Z,96750.91
2023-01-19T21:24:27.915Z,96757.59
2023-01-19T21:28:31.083Z,96758.94
2023-01-19T21:32:32.493Z,96757.81
2023-01-19T21:36:35.226Z,96761.72
2023-01-19T21:40:36.732Z,96757.47
2023-01-19T21:44:38.084Z,96753.47
2023-01-19T21:48:39.464Z,96757.00
2023-01-19T21:52:42.219Z,96754.28
2023-01-19T21:56:43.604Z,96752.53
2023-01-19T22:00:44.949Z,96756.41
2023-01-19T22:04:46.298Z,96748.81
2023-01-19T22:08:49.015Z,96748.03
2023-01-19T22:12:50.382Z,96750.03
2023-01-19T22:16:51.792Z,96745.03
2023-01-19T22:20:53.264Z,96748.56
2023-01-19T22:24:55.965Z,96748.63
2023-01-19T22:28:58.722Z,96743.66
2023-01-19T22:33:00.100Z,96737.41
2023-01-19T22:37:01.512Z,96746.66
2023-01-19T22:41:11.987Z,96743.38
2023-01-19T22:45:13.675Z,96744.81
2023-01-19T22:49:16.051Z,96753.63
2023-01-19T22:53:17.467Z,96752.69
2023-01-19T22:57:20.196Z,96757.59
2023-01-19T23:01:22.541Z,96754.00
2023-01-19T23:05:23.957Z,96762.44
2023-01-19T23:09:25.350Z,96765.72
2023-01-19T23:13:28.074Z,96774.03
2023-01-19T23:17:29.418Z,96772.59
2023-01-19T23:21:31.510Z,96774.69
2023-01-19T23:25:32.883Z,96779.31
2023-01-19T23:29:35.846Z,96775.81
2023-01-19T23:33:37.242Z,96776.19
2023-01-19T23:37:38.626Z,96778.34
2023-01-19T23:41:39.978Z,96776.19
2023-01-19T23:45:42.704Z,96780.94
2023-01-19T23:49:44.073Z,96780.88
2023-01-19T23:53:45.976Z,96785.81
2023-01-19T23:57:47.376Z,96788.44
